createdAt,value
2018-05-12T00:01:15.705Z,78.70
2018-05-12T00:03:44.099Z,78.32
2018-05-12T00:06:12.562Z,78.46
2018-05-12T00:08:40.990Z,79.57
2018-05-12T00:11:09.407Z,80.18
2018-05-12T00:13:37.844Z,81.50
2018-05-12T00:16:06.333Z,82.01
2018-05-12T00:18:34.797Z,81.68
2018-05-12T00:21:03.194Z,81.55
2018-05-12T00:23:31.628Z,81.17
2018-05-12T00:26:00.038Z,81.68
2018-05-12T00:28:28.476Z,81.51
2018-05-12T00:30:56.869Z,81.28
2018-05-12T00:33:25.324Z,79.95
2018-05-12T00:35:53.739Z,79.19
2018-05-12T00:38:22.133Z,79.59
2018-05-12T00:40:50.581Z,79.57
2018-05-12T00:43:18.977Z,79.20
2018-05-12T00:45:47.429Z,77.57
2018-05-12T00:48:15.825Z,80.30
2018-05-12T00:50:44.348Z,80.46
2018-05-12T00:53:12.753Z,80.88
2018-05-12T00:55:41.213Z,80.10
2018-05-12T00:58:09.604Z,78.96
2018-05-12T01:00:38.176Z,80.39
2018-05-12T01:03:06.645Z,81.78
2018-05-12T01:05:35.061Z,81.37
2018-05-12T01:08:03.515Z,80.43
2018-05-12T01:10:31.915Z,79.42
2018-05-12T01:13:00.330Z,79.76
2018-05-12T01:15:28.806Z,79.78
2018-05-12T01:17:57.244Z,80.32
2018-05-12T01:20:25.646Z,80.25
2018-05-12T01:22:54.092Z,80.04
2018-05-12T01:25:22.529Z,80.70
2018-05-12T01:27:50.970Z,80.47
2018-05-12T01:30:19.377Z,80.67
2018-05-12T01:32:47.769Z,79.89
2018-05-12T01:35:16.213Z,79.89
2018-05-12T01:37:44.595Z,78.93
2018-05-12T01:40:13.018Z,79.43
2018-05-12T01:42:41.427Z,79.54
2018-05-12T01:45:09.849Z,79.90
2018-05-12T01:47:38.299Z,79.90
2018-05-12T01:50:06.800Z,79.62
2018-05-12T01:52:35.220Z,79.73
2018-05-12T01:55:03.647Z,80.10
2018-05-12T01:57:32.072Z,80.45
2018-05-12T02:00:00.458Z,79.83
2018-05-12T02:02:28.932Z,79.84
2018-05-12T02:04:57.355Z,80.51
2018-05-12T02:07:25.861Z,81.66
2018-05-12T02:09:54.291Z,82.33
2018-05-12T02:12:22.749Z,82.40
2018-05-12T02:14:51.298Z,82.19
2018-05-12T02:17:19.721Z,82.40
2018-05-12T02:19:48.151Z,82.72
2018-05-12T02:22:16.666Z,83.41
2018-05-12T02:24:45.136Z,84.00
2018-05-12T02:27:13.518Z,83.56
2018-05-12T02:29:41.943Z,83.74
2018-05-12T02:32:10.403Z,83.87
2018-05-12T02:34:38.797Z,83.45
2018-05-12T02:37:07.205Z,83.30
2018-05-12T02:39:35.655Z,82.28
2018-05-12T02:42:04.107Z,81.35
2018-05-12T02:44:32.509Z,80.94
2018-05-12T02:47:00.931Z,80.49
2018-05-12T02:49:29.334Z,81.59
2018-05-12T02:51:57.794Z,81.12
2018-05-12T02:54:26.192Z,83.00
2018-05-12T02:56:54.615Z,83.56
2018-05-12T02:59:23.048Z,81.94
2018-05-12T03:01:51.447Z,81.81
2018-05-12T03:04:19.909Z,82.40
2018-05-12T03:06:48.291Z,82.54
2018-05-12T03:09:16.723Z,81.65
2018-05-12T03:11:45.247Z,81.64
2018-05-12T03:14:13.683Z,80.63
2018-05-12T03:16:42.306Z,80.31
2018-05-12T03:19:10.754Z,79.25
2018-05-12T03:21:39.752Z,78.54
2018-05-12T03:24:08.958Z,78.97
2018-05-12T03:26:38.101Z,78.93
2018-05-12T03:29:06.563Z,79.54
2018-05-12T03:31:35.002Z,80.02
2018-05-12T03:34:03.423Z,81.42
2018-05-12T03:36:31.858Z,81.46
2018-05-12T03:39:00.268Z,81.51
2018-05-12T03:41:28.713Z,81.29
2018-05-12T03:43:57.106Z,80.48
2018-05-12T03:46:25.533Z,78.94
2018-05-12T03:48:54.002Z,79.60
2018-05-12T03:51:22.439Z,79.23
2018-05-12T03:53:50.831Z,78.51
2018-05-12T03:56:19.282Z,78.12
2018-05-12T03:58:47.731Z,79.58
2018-05-12T04:01:16.107Z,79.42
2018-05-12T04:03:44.563Z,79.02
2018-05-12T04:06:24.853Z,78.95
2018-05-12T04:09:06.161Z,78.40
2018-05-12T04:11:46.410Z,77.99
2018-05-12T04:14:14.885Z,77.41
2018-05-12T04:16:43.283Z,77.34
2018-05-12T04:19:11.683Z,77.25
2018-05-12T04:21:40.129Z,76.64
2018-05-12T04:24:08.568Z,77.49
2018-05-12T04:26:37.071Z,77.00
2018-05-12T04:29:05.495Z,77.37
2018-05-12T04:31:33.982Z,77.61
2018-05-12T04:34:02.375Z,76.88
2018-05-12T04:36:30.771Z,76.80
2018-05-12T04:38:59.218Z,76.39
2018-05-12T04:41:27.625Z,75.85
2018-05-12T04:43:56.037Z,75.80
2018-05-12T04:46:24.576Z,75.02
2018-05-12T04:48:53.070Z,73.69
2018-05-12T04:51:21.503Z,72.50
2018-05-12T04:53:49.939Z,72.94
2018-05-12T04:56:18.394Z,71.91
2018-05-12T04:58:46.847Z,71.77
2018-05-12T05:01:15.330Z,70.42
2018-05-12T05:03:43.744Z,70.05
2018-05-12T05:06:12.203Z,69.60
2018-05-12T05:08:40.613Z,67.66
2018-05-12T05:11:09.076Z,69.26
2018-05-12T05:13:37.480Z,67.58
2018-05-12T05:16:05.871Z,66.88
2018-05-12T05:18:34.332Z,65.33
2018-05-12T05:21:02.874Z,63.87
2018-05-12T05:23:31.304Z,62.86
2018-05-12T05:25:59.711Z,62.61
2018-05-12T05:28:28.155Z,62.87
2018-05-12T05:30:56.596Z,63.75
2018-05-12T05:33:25.540Z,63.63
2018-05-12T05:35:53.967Z,63.48
2018-05-12T05:38:22.360Z,64.17
2018-05-12T05:40:51.231Z,63.29
2018-05-12T05:43:19.638Z,62.16
2018-05-12T05:45:48.033Z,63.33
2018-05-12T05:48:16.842Z,64.73
2018-05-12T05:50:45.278Z,65.03
2018-05-12T05:53:13.687Z,63.65
2018-05-12T05:55:42.459Z,62.93
2018-05-12T05:58:10.869Z,62.36
2018-05-12T06:00:39.275Z,60.24
2018-05-12T06:03:07.714Z,58.97
2018-05-12T06:05:36.119Z,58.41
2018-05-12T06:08:04.615Z,57.00
2018-05-12T06:10:33.098Z,55.25
2018-05-12T06:13:01.516Z,56.42
2018-05-12T06:15:29.925Z,55.78
2018-05-12T06:17:58.782Z,54.98
2018-05-12T06:20:27.168Z,55.85
2018-05-12T06:22:55.594Z,58.79
2018-05-12T06:25:24.164Z,59.37
2018-05-12T06:27:52.612Z,58.34
2018-05-12T06:30:21.036Z,59.22
2018-05-12T06:32:49.683Z,60.11
2018-05-12T06:35:18.096Z,60.28
2018-05-12T06:37:46.511Z,58.70
2018-05-12T06:40:15.436Z,57.02
2018-05-12T06:42:43.871Z,55.94
2018-05-12T06:45:12.251Z,56.37
2018-05-12T06:47:41.208Z,57.49
2018-05-12T06:50:09.592Z,57.58
2018-05-12T06:52:38.201Z,56.10
2018-05-12T06:55:06.959Z,56.89
2018-05-12T06:57:35.468Z,58.23
2018-05-12T07:00:03.902Z,57.47
2018-05-12T07:02:32.369Z,56.88
2018-05-12T07:05:00.794Z,55.60
2018-05-12T07:07:29.227Z,54.56
2018-05-12T07:09:58.150Z,53.37
2018-05-12T07:12:26.575Z,55.00
2018-05-12T07:14:54.959Z,54.86
2018-05-12T07:17:23.705Z,54.56
2018-05-12T07:19:52.370Z,54.40
2018-05-12T07:22:20.869Z,53.92
2018-05-12T07:24:49.615Z,52.92
2018-05-12T07:27:18.016Z,50.76
2018-05-12T07:29:46.429Z,50.23
2018-05-12T07:32:15.009Z,49.92
2018-05-12T07:34:43.398Z,48.89
2018-05-12T07:37:11.831Z,48.65
2018-05-12T07:39:40.456Z,47.42
2018-05-12T07:42:08.886Z,46.47
2018-05-12T07:44:37.280Z,46.81
2018-05-12T07:47:06.118Z,46.58
2018-05-12T07:49:34.516Z,45.81
2018-05-12T07:52:02.920Z,45.88
2018-05-12T07:54:31.344Z,45.44
2018-05-12T07:56:59.739Z,44.98
2018-05-12T07:59:28.290Z,44.15
2018-05-12T08:01:57.077Z,43.29
2018-05-12T08:04:25.522Z,41.41
2018-05-12T08:06:53.950Z,40.45
2018-05-12T08:09:22.569Z,38.70
2018-05-12T08:11:50.971Z,39.14
2018-05-12T08:14:19.375Z,39.26
2018-05-12T08:16:47.787Z,38.67
2018-05-12T08:19:16.197Z,40.48
2018-05-12T08:21:44.575Z,40.92
2018-05-12T08:24:13.333Z,42.91
2018-05-12T08:26:41.723Z,43.07
2018-05-12T08:29:10.196Z,42.27
2018-05-12T08:31:39.017Z,40.85
2018-05-12T08:34:07.411Z,41.10
2018-05-12T08:36:35.824Z,41.27
2018-05-12T08:39:04.294Z,41.25
2018-05-12T08:41:32.700Z,39.94
2018-05-12T08:44:01.099Z,39.69
2018-05-12T08:46:29.979Z,39.63
2018-05-12T08:48:58.511Z,38.45
2018-05-12T08:51:27.035Z,38.02
2018-05-12T08:53:55.617Z,40.57
2018-05-12T08:56:24.116Z,40.21
2018-05-12T08:58:52.540Z,39.85
2018-05-12T09:01:20.965Z,40.98
2018-05-12T09:03:49.362Z,38.50
2018-05-12T09:06:17.790Z,36.93
2018-05-12T09:08:46.412Z,35.78
2018-05-12T09:11:14.818Z,35.55
2018-05-12T09:13:43.175Z,36.47
2018-05-12T09:16:11.577Z,38.21
2018-05-12T09:18:39.953Z,37.82
2018-05-12T09:21:08.347Z,36.28
2018-05-12T09:23:37.080Z,35.43
2018-05-12T09:26:05.519Z,33.77
2018-05-12T09:28:33.922Z,33.77
2018-05-12T09:31:02.743Z,35.81
2018-05-12T09:33:31.179Z,35.88
2018-05-12T09:35:59.607Z,34.14
2018-05-12T09:38:28.291Z,34.48
2018-05-12T09:40:56.671Z,34.14
2018-05-12T09:43:25.059Z,35.04
2018-05-12T09:45:53.741Z,34.77
2018-05-12T09:48:22.140Z,33.63
2018-05-12T09:50:50.579Z,33.98
2018-05-12T09:53:19.492Z,33.64
2018-05-12T09:55:47.903Z,34.21
2018-05-12T09:58:16.312Z,36.18
2018-05-12T10:00:45.148Z,36.38
2018-05-12T10:03:13.577Z,36.11
2018-05-12T10:05:41.974Z,35.04
2018-05-12T10:08:10.523Z,36.33
2018-05-12T10:10:38.935Z,35.99
2018-05-12T10:13:07.342Z,34.12
2018-05-12T10:15:35.828Z,34.53
2018-05-12T10:18:04.218Z,34.70
2018-05-12T10:20:32.864Z,33.22
2018-05-12T10:23:01.689Z,32.84
2018-05-12T10:25:30.468Z,32.28
2018-05-12T10:27:59.255Z,33.36
2018-05-12T10:30:28.148Z,32.59
2018-05-12T10:32:56.938Z,32.60
2018-05-12T10:35:25.724Z,32.18
2018-05-12T10:37:54.515Z,31.58
2018-05-12T10:40:23.303Z,30.56
2018-05-12T10:42:52.159Z,30.21
2018-05-12T10:45:21.472Z,29.30
2018-05-12T10:47:50.269Z,28.43
2018-05-12T10:50:18.969Z,28.06
2018-05-12T10:52:49.270Z,26.46
2018-05-12T10:55:17.985Z,25.89
2018-05-12T10:57:46.674Z,25.01
2018-05-12T11:00:15.669Z,23.68
2018-05-12T11:02:44.457Z,23.38
2018-05-12T11:05:13.347Z,24.92
2018-05-12T11:07:42.036Z,23.60
2018-05-12T11:10:10.660Z,22.49
2018-05-12T11:12:39.097Z,22.33
2018-05-12T11:15:07.967Z,22.95
2018-05-12T11:17:36.416Z,21.52
2018-05-12T11:20:04.951Z,20.64
2018-05-12T11:22:33.862Z,23.00
2018-05-12T11:25:02.283Z,25.06
2018-05-12T11:27:30.803Z,25.63
2018-05-12T11:29:59.266Z,27.74
2018-05-12T11:32:27.709Z,25.78
2018-05-12T11:37:29.948Z,19.83
2018-05-12T11:39:58.391Z,20.01
2018-05-12T11:42:26.754Z,21.82
2018-05-12T11:44:55.189Z,22.16
2018-05-12T11:47:23.595Z,21.96
2018-05-12T11:49:52.000Z,20.92
2018-05-12T11:52:20.772Z,22.45
2018-05-12T11:54:49.195Z,23.67
2018-05-12T11:57:17.586Z,23.29
2018-05-12T11:59:46.302Z,22.84
2018-05-12T12:02:14.714Z,24.64
2018-05-12T12:04:43.147Z,24.67
2018-05-12T12:07:11.637Z,25.58
2018-05-12T12:09:40.033Z,25.85
2018-05-12T12:12:08.578Z,27.68
2018-05-12T12:14:37.037Z,26.37
2018-05-12T12:17:05.476Z,24.51
2018-05-12T12:19:33.892Z,22.08
2018-05-12T12:22:02.682Z,24.33
2018-05-12T12:24:31.097Z,25.75
2018-05-12T12:26:59.608Z,26.94
2018-05-12T12:29:28.699Z,27.53
2018-05-12T12:31:57.393Z,29.52
2018-05-12T12:34:25.873Z,32.31
2018-05-12T12:36:54.405Z,37.28
2018-05-12T12:39:22.934Z,37.81
2018-05-12T12:41:51.422Z,48.40
2018-05-12T12:44:20.431Z,51.41
2018-05-12T12:46:49.098Z,58.28
2018-05-12T12:49:17.787Z,67.60
2018-05-12T12:51:46.818Z,73.77
2018-05-12T12:54:15.363Z,75.60
2018-05-12T12:56:44.052Z,76.94
2018-05-12T12:59:12.637Z,80.40
2018-05-12T13:01:41.099Z,77.44
2018-05-12T13:04:09.502Z,76.39
2018-05-12T13:06:38.310Z,72.78
2018-05-12T13:09:06.724Z,74.19
2018-05-12T13:11:35.312Z,64.66
2018-05-12T13:14:04.164Z,69.11
2018-05-12T13:16:32.567Z,67.40
2018-05-12T13:19:00.941Z,70.69
2018-05-12T13:21:29.724Z,71.02
2018-05-12T13:23:58.118Z,68.62
2018-05-12T13:26:26.652Z,69.87
2018-05-12T13:28:55.470Z,69.29
2018-05-12T13:31:23.962Z,69.97
2018-05-12T13:33:52.433Z,72.13
2018-05-12T13:36:20.848Z,71.92
2018-05-12T13:38:49.257Z,71.57
2018-05-12T13:41:17.656Z,70.11
2018-05-12T13:43:46.487Z,67.78
2018-05-12T13:46:14.906Z,67.79
2018-05-12T13:48:43.328Z,67.01
2018-05-12T13:51:12.213Z,68.58
2018-05-12T13:53:40.670Z,66.07
2018-05-12T13:56:09.088Z,65.58
2018-05-12T13:58:37.584Z,67.68
2018-05-12T14:01:05.993Z,67.28
2018-05-12T14:03:34.504Z,66.67
2018-05-12T14:06:02.931Z,66.71
2018-05-12T14:08:31.372Z,65.60
2018-05-12T14:10:59.787Z,64.46
2018-05-12T14:13:28.647Z,66.49
2018-05-12T14:15:57.011Z,67.49
2018-05-12T14:18:25.439Z,67.75
2018-05-12T14:20:53.893Z,66.12
2018-05-12T14:23:22.427Z,65.64
2018-05-12T14:25:50.838Z,67.04
2018-05-12T14:28:19.467Z,63.02
2018-05-12T14:30:47.893Z,64.17
2018-05-12T14:33:16.326Z,64.70
2018-05-12T14:35:45.109Z,63.68
2018-05-12T14:38:13.531Z,64.07
2018-05-12T14:40:42.031Z,61.58
2018-05-12T14:43:10.781Z,63.75
2018-05-12T14:45:39.191Z,62.47
2018-05-12T14:48:07.625Z,60.24
2018-05-12T14:50:36.291Z,60.42
2018-05-12T14:53:04.691Z,59.60
2018-05-12T14:55:33.111Z,57.33
2018-05-12T14:58:01.548Z,57.24
2018-05-12T15:00:29.957Z,57.12
2018-05-12T15:02:58.376Z,55.97
2018-05-12T15:05:26.989Z,54.95
2018-05-12T15:07:55.418Z,52.02
2018-05-12T15:10:23.807Z,52.06
2018-05-12T15:12:52.646Z,53.09
2018-05-12T15:15:21.111Z,58.44
2018-05-12T15:17:49.523Z,62.47
2018-05-12T15:20:18.333Z,69.37
2018-05-12T15:22:46.759Z,76.95
2018-05-12T15:25:15.160Z,78.21
2018-05-12T15:27:43.647Z,78.71
2018-05-12T15:30:12.031Z,77.69
2018-05-12T15:32:40.461Z,76.34
2018-05-12T15:35:09.333Z,79.49
2018-05-12T15:37:37.843Z,76.39
2018-05-12T15:40:06.222Z,76.40
2018-05-12T15:42:34.666Z,76.79
2018-05-12T15:45:03.110Z,78.71
2018-05-12T15:47:31.543Z,78.11
2018-05-12T15:50:00.473Z,78.90
2018-05-12T15:52:29.342Z,78.33
2018-05-12T15:54:57.767Z,77.31
2018-05-12T15:57:26.645Z,76.59
2018-05-12T15:59:55.101Z,75.51
2018-05-12T16:02:23.503Z,76.96
2018-05-12T16:04:52.304Z,76.84
2018-05-12T16:07:20.836Z,78.45
2018-05-12T16:09:49.264Z,77.55
2018-05-12T16:12:18.131Z,74.81
2018-05-12T16:14:46.478Z,75.83
2018-05-12T16:17:15.110Z,76.82
2018-05-12T16:19:43.552Z,77.45
2018-05-12T16:22:11.948Z,78.30
2018-05-12T16:24:40.360Z,78.24
2018-05-12T16:27:09.139Z,77.97
2018-05-12T16:29:37.572Z,77.13
2018-05-12T16:32:05.971Z,77.12
2018-05-12T16:34:34.532Z,78.61
2018-05-12T16:39:37.879Z,78.90
2018-05-12T16:42:06.280Z,79.72
2018-05-12T16:44:34.694Z,78.06
2018-05-12T16:47:03.241Z,72.93
2018-05-12T16:49:31.719Z,71.85
2018-05-12T16:52:00.084Z,74.53
2018-05-12T16:54:28.821Z,72.16
2018-05-12T16:56:57.217Z,71.29
2018-05-12T16:59:25.607Z,70.99
2018-05-12T17:01:54.343Z,71.04
2018-05-12T17:04:22.757Z,68.75
2018-05-12T17:06:51.156Z,69.62
2018-05-12T17:09:20.043Z,71.04
2018-05-12T17:11:48.561Z,69.04
2018-05-12T17:14:16.985Z,69.40
2018-05-12T17:16:45.645Z,68.20
2018-05-12T17:19:14.025Z,70.46
2018-05-12T17:21:42.426Z,70.91
2018-05-12T17:24:11.093Z,69.92
2018-05-12T17:26:39.471Z,69.31
2018-05-12T17:29:08.032Z,72.67
2018-05-12T17:31:36.851Z,71.90
2018-05-12T17:34:05.271Z,75.74
2018-05-12T17:36:33.755Z,75.87
2018-05-12T17:39:02.701Z,72.20
2018-05-12T17:41:31.210Z,69.95
2018-05-12T17:43:59.611Z,69.73
2018-05-12T17:46:28.327Z,71.98
2018-05-12T17:48:56.728Z,71.94
2018-05-12T17:51:25.128Z,72.14
2018-05-12T17:53:53.559Z,73.46
2018-05-12T17:56:21.951Z,72.87
2018-05-12T17:58:50.350Z,74.22
2018-05-12T18:01:19.014Z,74.07
2018-05-12T18:03:47.408Z,74.66
2018-05-12T18:06:15.823Z,76.53
2018-05-12T18:08:44.587Z,77.82
2018-05-12T18:11:12.963Z,75.87
2018-05-12T18:13:41.423Z,74.50
2018-05-12T18:16:09.867Z,75.94
2018-05-12T18:18:38.252Z,77.08
2018-05-12T18:21:06.703Z,77.02
2018-05-12T18:23:35.681Z,77.06
2018-05-12T18:26:04.119Z,76.04
2018-05-12T18:28:32.502Z,77.43
2018-05-12T18:31:00.923Z,77.43
2018-05-12T18:33:29.324Z,77.46
2018-05-12T18:35:57.760Z,75.72
2018-05-12T18:38:26.583Z,76.65
2018-05-12T18:40:54.980Z,78.14
2018-05-12T18:43:23.356Z,78.74
2018-05-12T18:45:52.127Z,79.30
2018-05-12T18:48:20.511Z,79.16
2018-05-12T18:50:48.904Z,80.92
2018-05-12T18:53:17.331Z,82.82
2018-05-12T18:55:45.763Z,83.96
2018-05-12T18:58:14.147Z,84.50
2018-05-12T19:00:42.890Z,83.25
2018-05-12T19:03:11.303Z,82.09
2018-05-12T19:05:39.723Z,81.67
2018-05-12T19:08:08.344Z,81.30
2018-05-12T19:10:36.732Z,81.58
2018-05-12T19:13:05.145Z,81.55
2018-05-12T19:15:33.880Z,81.96
2018-05-12T19:18:02.235Z,81.42
2018-05-12T19:20:30.631Z,81.92
2018-05-12T19:22:59.444Z,81.90
2018-05-12T19:25:27.824Z,81.64
2018-05-12T19:27:56.177Z,81.79
2018-05-12T19:30:24.996Z,81.25
2018-05-12T19:32:53.439Z,81.23
2018-05-12T19:35:21.809Z,80.72
2018-05-12T19:37:50.560Z,80.41
2018-05-12T19:40:18.969Z,80.55
2018-05-12T19:42:47.342Z,81.41
2018-05-12T19:45:16.100Z,80.84
2018-05-12T19:47:44.523Z,80.71
2018-05-12T19:50:12.916Z,80.84
2018-05-12T19:52:41.629Z,80.34
2018-05-12T19:55:10.051Z,80.69
2018-05-12T19:57:38.511Z,80.89
2018-05-12T20:00:06.969Z,81.57
2018-05-12T20:02:35.350Z,81.77
2018-05-12T20:05:03.778Z,81.53
2018-05-12T20:07:32.209Z,82.07
2018-05-12T20:10:00.670Z,82.04
2018-05-12T20:12:29.064Z,81.63
2018-05-12T20:14:57.883Z,82.03
2018-05-12T20:17:26.313Z,81.83
2018-05-12T20:19:54.726Z,81.69
2018-05-12T20:22:23.241Z,81.80
2018-05-12T20:24:51.635Z,82.34
2018-05-12T20:27:20.071Z,82.89
2018-05-12T20:29:48.974Z,82.29
2018-05-12T20:32:17.395Z,82.88
2018-05-12T20:34:45.894Z,82.58
2018-05-12T20:37:14.643Z,82.96
2018-05-12T20:39:43.057Z,83.31
2018-05-12T20:42:11.468Z,83.35
2018-05-12T20:44:40.072Z,82.94
2018-05-12T20:47:08.467Z,82.78
2018-05-12T20:49:37.992Z,82.75
2018-05-12T20:52:06.729Z,82.69
2018-05-12T20:54:35.123Z,82.92
2018-05-12T20:57:03.523Z,82.90
2018-05-12T20:59:32.311Z,82.58
2018-05-12T21:02:00.720Z,82.90
2018-05-12T21:04:29.138Z,83.11
2018-05-12T21:06:57.939Z,82.75
2018-05-12T21:09:26.331Z,82.35
2018-05-12T21:11:54.748Z,82.94
2018-05-12T21:14:23.250Z,83.07
2018-05-12T21:16:51.603Z,83.30
2018-05-12T21:19:20.003Z,82.20
2018-05-12T21:21:48.419Z,81.70
2018-05-12T21:24:16.812Z,81.51
2018-05-12T21:26:45.207Z,81.80
2018-05-12T21:29:13.628Z,81.39
2018-05-12T21:31:42.048Z,81.69
2018-05-12T21:34:10.485Z,80.84
2018-05-12T21:36:38.891Z,81.59
2018-05-12T21:39:07.312Z,81.17
2018-05-12T21:41:35.715Z,81.50
2018-05-12T21:44:04.561Z,80.56
2018-05-12T21:46:32.940Z,81.38
2018-05-12T21:49:01.305Z,81.26
2018-05-12T21:51:30.041Z,81.27
2018-05-12T21:53:58.428Z,81.30
2018-05-12T21:56:26.803Z,80.49
2018-05-12T21:58:55.313Z,80.85
2018-05-12T22:01:23.693Z,80.66
2018-05-12T22:03:52.083Z,80.31
2018-05-12T22:06:20.522Z,80.15
2018-05-12T22:08:48.959Z,80.43
2018-05-12T22:11:17.397Z,81.78
2018-05-12T22:13:45.923Z,82.16
2018-05-12T22:16:14.328Z,82.28
2018-05-12T22:18:42.820Z,82.47
2018-05-12T22:21:11.219Z,82.75
2018-05-12T22:23:39.736Z,81.88
2018-05-12T22:26:08.171Z,81.20
2018-05-12T22:28:36.579Z,81.47
2018-05-12T22:31:04.974Z,81.49
2018-05-12T22:33:33.396Z,81.02
2018-05-12T22:36:01.808Z,80.76
2018-05-12T22:38:30.236Z,81.85
2018-05-12T22:40:58.711Z,82.72
2018-05-12T22:43:27.125Z,83.28
2018-05-12T22:45:55.557Z,82.64
2018-05-12T22:48:23.948Z,81.86
2018-05-12T22:50:52.396Z,82.05
2018-05-12T22:53:20.871Z,82.00
2018-05-12T22:55:49.296Z,81.44
2018-05-12T22:58:17.730Z,81.12
2018-05-12T23:00:46.133Z,80.73
2018-05-12T23:03:14.617Z,80.85
2018-05-12T23:05:43.075Z,80.96
2018-05-12T23:08:11.486Z,82.51
2018-05-12T23:10:39.924Z,84.90
2018-05-12T23:13:08.378Z,85.45
2018-05-12T23:15:36.768Z,84.82
2018-05-12T23:18:05.241Z,84.10
2018-05-12T23:20:33.633Z,83.30
2018-05-12T23:23:02.031Z,83.03
2018-05-12T23:25:30.468Z,82.69
2018-05-12T23:27:58.866Z,80.78
2018-05-12T23:30:27.296Z,79.67
2018-05-12T23:32:55.688Z,80.75
2018-05-12T23:35:24.121Z,79.89
2018-05-12T23:37:52.636Z,78.26
2018-05-12T23:40:21.031Z,79.08
2018-05-12T23:42:49.471Z,81.71
2018-05-12T23:45:17.880Z,82.51
2018-05-12T23:47:46.312Z,83.49
2018-05-12T23:50:14.739Z,84.25
2018-05-12T23:52:43.175Z,84.51
2018-05-12T23:55:11.580Z,84.70
2018-05-12T23:57:40.099Z,85.28
